createdAt,value
2023-02-24T00:00:32.608Z,7.52
2023-02-24T00:03:37.683Z,7.53
2023-02-24T00:06:43.876Z,7.49
2023-02-24T00:09:45.983Z,7.41
2023-02-24T00:12:48.172Z,7.29
2023-02-24T00:16:04.688Z,7.40
2023-02-24T00:19:10.570Z,7.39
2023-02-24T00:22:13.085Z,7.39
2023-02-24T00:25:15.162Z,7.38
2023-02-24T00:28:17.299Z,7.17
2023-02-24T00:31:20.676Z,7.34
2023-02-24T00:34:23.469Z,7.36
2023-02-24T00:37:26.739Z,7.34
2023-02-24T00:40:30.530Z,7.34
2023-02-24T00:43:37.522Z,7.27
2023-02-24T00:46:42.063Z,7.02
2023-02-24T00:49:44.490Z,7.09
2023-02-24T00:52:48.310Z,6.94
2023-02-24T00:55:59.882Z,7.21
2023-02-24T00:59:02.954Z,7.17
2023-02-24T01:02:07.421Z,7.16
2023-02-24T01:05:10.004Z,7.00
2023-02-24T01:08:13.990Z,6.77
2023-02-24T01:11:37.340Z,6.98
2023-02-24T01:14:40.412Z,6.97
2023-02-24T01:17:42.821Z,6.84
2023-02-24T01:20:45.664Z,6.80
2023-02-24T01:23:49.221Z,6.81
2023-02-24T01:26:51.435Z,6.73
2023-02-24T01:29:53.762Z,6.67
2023-02-24T01:32:57.597Z,6.62
2023-02-24T01:36:10.946Z,6.54
2023-02-24T01:39:14.114Z,6.52
2023-02-24T01:42:21.622Z,6.61
2023-02-24T01:45:28.999Z,6.66
2023-02-24T01:48:31.792Z,6.50
2023-02-24T01:51:55.094Z,6.59
2023-02-24T01:55:04.090Z,6.58
2023-02-24T01:58:13.361Z,6.32
2023-02-24T02:01:17.292Z,6.68
2023-02-24T02:04:28.343Z,6.71
2023-02-24T02:07:31.106Z,6.41
2023-02-24T02:10:34.357Z,6.73
2023-02-24T02:13:43.478Z,6.73
2023-02-24T02:16:51.621Z,6.66
2023-02-24T02:19:55.620Z,6.59
2023-02-24T02:23:32.582Z,6.50
2023-02-24T02:26:59.165Z,6.47
2023-02-24T02:30:19.732Z,6.03
2023-02-24T02:33:48.060Z,6.22
2023-02-24T02:37:00.259Z,6.15
2023-02-24T02:40:20.187Z,5.87
2023-02-24T02:43:52.748Z,5.96
2023-02-24T02:47:35.993Z,6.16
2023-02-24T02:50:46.177Z,6.28
2023-02-24T02:54:16.012Z,6.19
2023-02-24T02:57:25.268Z,6.37
2023-02-24T03:00:35.444Z,6.17
2023-02-24T03:03:42.984Z,6.11
2023-02-24T03:06:50.561Z,6.49
2023-02-24T03:09:58.492Z,6.54
2023-02-24T03:13:05.303Z,6.57
2023-02-24T03:16:11.405Z,6.53
2023-02-24T03:19:16.808Z,6.40
2023-02-24T03:22:39.729Z,6.50
2023-02-24T03:25:52.321Z,6.45
2023-02-24T03:29:18.769Z,6.71
2023-02-24T03:32:33.908Z,6.64
2023-02-24T03:35:42.352Z,6.55
2023-02-24T03:38:44.686Z,6.82
2023-02-24T03:42:02.850Z,5.93
2023-02-24T03:45:07.416Z,7.07
2023-02-24T03:48:12.209Z,7.17
2023-02-24T03:51:20.866Z,7.29
2023-02-24T03:54:59.459Z,7.34
2023-02-24T03:58:23.607Z,7.06
2023-02-24T04:01:42.248Z,7.50
2023-02-24T04:04:54.979Z,7.39
2023-02-24T04:08:07.468Z,7.24
2023-02-24T04:11:22.821Z,7.61
2023-02-24T04:14:35.278Z,7.64
2023-02-24T04:17:53.961Z,7.54
2023-02-24T04:21:00.282Z,7.67
2023-02-24T04:24:11.619Z,7.54
2023-02-24T04:27:16.235Z,7.66
2023-02-24T04:30:20.349Z,7.48
2023-02-24T04:33:22.976Z,7.66
2023-02-24T04:36:26.596Z,7.66
2023-02-24T04:39:31.154Z,7.55
2023-02-24T04:42:35.405Z,7.60
2023-02-24T04:45:40.428Z,7.37
2023-02-24T04:48:42.411Z,7.39
2023-02-24T04:51:45.425Z,7.05
2023-02-24T04:54:48.220Z,6.74
2023-02-24T04:57:53.715Z,7.06
2023-02-24T05:00:56.189Z,6.86
2023-02-24T05:04:00.369Z,6.84
2023-02-24T05:07:03.324Z,6.53
2023-02-24T05:10:06.180Z,6.70
2023-02-24T05:13:09.639Z,6.65
2023-02-24T05:16:14.703Z,6.32
2023-02-24T05:19:37.735Z,6.28
2023-02-24T05:22:39.775Z,6.42
2023-02-24T05:25:43.285Z,6.17
2023-02-24T05:28:52.878Z,6.64
2023-02-24T05:31:59.813Z,6.49
2023-02-24T05:35:03.097Z,6.52
2023-02-24T05:38:08.370Z,6.53
2023-02-24T05:41:17.886Z,6.34
2023-02-24T05:44:23.772Z,6.61
2023-02-24T05:47:27.117Z,6.61
2023-02-24T05:50:29.099Z,6.71
2023-02-24T05:53:31.080Z,7.02
2023-02-24T05:56:34.837Z,7.12
2023-02-24T05:59:36.957Z,7.21
2023-02-24T06:02:39.040Z,7.44
2023-02-24T06:05:42.880Z,7.48
2023-02-24T06:08:55.534Z,7.58
2023-02-24T06:11:57.597Z,7.37
2023-02-24T06:15:00.773Z,7.13
2023-02-24T06:18:02.918Z,7.03
2023-02-24T06:21:05.252Z,6.88
2023-02-24T06:24:14.770Z,6.72
2023-02-24T06:27:19.275Z,6.66
2023-02-24T06:30:27.162Z,6.27
2023-02-24T06:33:29.169Z,6.57
2023-02-24T06:36:32.011Z,6.26
2023-02-24T06:39:36.790Z,6.18
2023-02-24T06:42:39.459Z,6.30
2023-02-24T06:45:41.593Z,6.20
2023-02-24T06:48:43.990Z,6.33
2023-02-24T06:51:45.977Z,6.14
2023-02-24T06:54:49.728Z,6.41
2023-02-24T06:57:57.614Z,6.23
2023-02-24T07:00:59.763Z,6.43
2023-02-24T07:04:04.834Z,6.22
2023-02-24T07:07:06.861Z,6.37
2023-02-24T07:10:10.584Z,6.19
2023-02-24T07:13:13.722Z,6.66
2023-02-24T07:16:25.459Z,6.37
2023-02-24T07:19:32.557Z,6.85
2023-02-24T07:22:34.864Z,6.94
2023-02-24T07:25:36.977Z,6.82
2023-02-24T07:28:40.509Z,7.10
2023-02-24T07:31:43.208Z,6.86
2023-02-24T07:34:45.830Z,6.97
2023-02-24T07:37:50.704Z,7.45
2023-02-24T07:40:58.385Z,7.31
2023-02-24T07:44:03.529Z,7.48
2023-02-24T07:47:08.303Z,7.89
2023-02-24T07:50:14.672Z,8.11
2023-02-24T07:53:16.689Z,8.42
2023-02-24T07:56:20.284Z,8.89
2023-02-24T07:59:24.595Z,9.15
2023-02-24T08:02:26.982Z,8.64
2023-02-24T08:05:30.605Z,9.41
2023-02-24T08:08:39.326Z,9.69
2023-02-24T08:11:42.727Z,9.87
2023-02-24T08:14:51.315Z,10.33
2023-02-24T08:17:59.776Z,10.77
2023-02-24T08:21:05.002Z,10.96
2023-02-24T08:24:17.834Z,12.14
2023-02-24T08:27:22.301Z,13.79
2023-02-24T08:30:25.756Z,15.04
2023-02-24T08:33:30.518Z,15.61
2023-02-24T08:36:32.632Z,16.74
2023-02-24T08:39:36.675Z,16.62
2023-02-24T08:42:38.696Z,16.57
2023-02-24T08:45:40.750Z,16.32
2023-02-24T08:48:48.552Z,16.00
2023-02-24T08:51:53.235Z,15.45
2023-02-24T08:54:59.466Z,15.62
2023-02-24T08:58:01.831Z,15.02
2023-02-24T09:01:04.074Z,14.78
2023-02-24T09:04:12.231Z,15.63
2023-02-24T09:07:16.952Z,15.11
2023-02-24T09:10:19.710Z,15.22
2023-02-24T09:13:21.922Z,14.79
2023-02-24T09:16:25.494Z,14.99
2023-02-24T09:19:40.974Z,14.97
2023-02-24T09:22:57.416Z,15.32
2023-02-24T09:26:11.330Z,15.37
2023-02-24T09:29:33.877Z,15.60
2023-02-24T09:32:36.179Z,15.32
2023-02-24T09:35:42.122Z,15.08
2023-02-24T09:39:01.424Z,15.48
2023-02-24T09:42:09.583Z,15.39
2023-02-24T09:45:33.573Z,15.97
2023-02-24T09:48:54.630Z,16.19
2023-02-24T09:52:09.233Z,16.09
2023-02-24T09:55:25.264Z,16.71
2023-02-24T09:58:49.677Z,17.07
2023-02-24T10:02:10.471Z,17.33
2023-02-24T10:05:21.502Z,17.63
2023-02-24T10:08:32.141Z,17.75
2023-02-24T10:11:34.279Z,17.85
2023-02-24T10:14:44.583Z,17.71
2023-02-24T10:18:27.570Z,17.74
2023-02-24T10:21:49.977Z,17.95
2023-02-24T10:25:13.875Z,17.76
2023-02-24T10:28:52.202Z,18.22
2023-02-24T10:32:18.997Z,17.95
2023-02-24T10:35:26.415Z,18.45
2023-02-24T10:38:29.080Z,18.31
2023-02-24T10:41:31.200Z,18.99
2023-02-24T10:44:36.734Z,18.94
2023-02-24T10:47:44.682Z,19.28
2023-02-24T10:50:55.930Z,18.89
2023-02-24T10:54:33.208Z,18.59
2023-02-24T10:57:59.235Z,18.65
2023-02-24T11:01:18.619Z,18.53
2023-02-24T11:04:28.356Z,18.06
2023-02-24T11:07:45.547Z,18.03
2023-02-24T11:10:58.822Z,17.66
2023-02-24T11:14:21.539Z,17.27
2023-02-24T11:17:27.952Z,17.27
2023-02-24T11:20:47.722Z,16.69
2023-02-24T11:23:59.713Z,16.43
2023-02-24T11:27:04.521Z,16.40
2023-02-24T11:30:17.219Z,16.40
2023-02-24T11:33:40.005Z,16.32
2023-02-24T11:37:14.796Z,16.15
2023-02-24T11:40:27.154Z,15.64
2023-02-24T11:43:33.813Z,15.65
2023-02-24T11:46:54.523Z,15.34
2023-02-24T11:50:18.036Z,15.94
2023-02-24T11:53:25.646Z,16.06
2023-02-24T11:56:44.239Z,16.04
2023-02-24T11:59:54.713Z,16.34
2023-02-24T12:03:15.954Z,16.51
2023-02-24T12:06:51.831Z,16.38
2023-02-24T12:10:15.986Z,16.05
2023-02-24T12:13:44.797Z,16.58
2023-02-24T12:16:53.455Z,16.23
2023-02-24T12:20:05.289Z,16.35
2023-02-24T12:23:21.185Z,16.54
2023-02-24T12:26:32.172Z,16.52
2023-02-24T12:29:46.199Z,16.65
2023-02-24T12:33:05.946Z,16.66
2023-02-24T12:36:38.518Z,16.19
2023-02-24T12:39:49.312Z,16.27
2023-02-24T12:43:03.046Z,16.29
2023-02-24T12:46:21.874Z,15.86
2023-02-24T12:49:32.866Z,15.77
2023-02-24T12:52:38.496Z,15.63
2023-02-24T12:56:08.188Z,15.56
2023-02-24T12:59:16.480Z,15.39
2023-02-24T13:02:50.443Z,15.48
2023-02-24T13:06:05.602Z,15.64
2023-02-24T13:09:31.772Z,15.63
2023-02-24T13:12:39.583Z,15.50
2023-02-24T13:15:54.231Z,15.31
2023-02-24T13:19:18.996Z,15.20
2023-02-24T13:22:30.288Z,15.11
2023-02-24T13:25:38.676Z,14.62
2023-02-24T13:28:40.799Z,14.60
2023-02-24T13:31:48.627Z,14.81
2023-02-24T13:34:52.055Z,14.65
2023-02-24T13:37:54.678Z,14.31
2023-02-24T13:41:07.896Z,14.21
2023-02-24T13:44:19.043Z,14.51
2023-02-24T13:47:39.674Z,14.50
2023-02-24T13:51:09.130Z,14.51
2023-02-24T13:54:35.921Z,14.47
2023-02-24T13:57:51.290Z,14.25
2023-02-24T14:01:14.885Z,14.25
2023-02-24T14:04:26.071Z,14.19
2023-02-24T14:07:35.252Z,14.09
2023-02-24T14:10:38.971Z,14.15
2023-02-24T14:13:46.547Z,13.88
2023-02-24T14:16:51.203Z,13.91
2023-02-24T14:19:53.317Z,13.63
2023-02-24T14:23:00.111Z,13.50
2023-02-24T14:26:08.304Z,13.10
2023-02-24T14:29:11.166Z,13.32
2023-02-24T14:32:21.625Z,13.54
2023-02-24T14:35:31.114Z,13.48
2023-02-24T14:38:40.266Z,13.36
2023-02-24T14:41:43.212Z,13.28
2023-02-24T14:44:54.976Z,13.43
2023-02-24T14:47:57.676Z,13.35
2023-02-24T14:51:11.802Z,13.53
2023-02-24T14:54:21.538Z,13.48
2023-02-24T14:57:31.023Z,13.48
2023-02-24T15:00:41.324Z,13.47
2023-02-24T15:03:56.688Z,13.37
2023-02-24T15:06:59.545Z,13.37
2023-02-24T15:10:02.952Z,13.12
2023-02-24T15:13:34.749Z,13.25
2023-02-24T15:16:36.837Z,13.24
2023-02-24T15:19:49.465Z,12.97
2023-02-24T15:22:51.881Z,13.04
2023-02-24T15:25:54.056Z,12.80
2023-02-24T15:29:04.452Z,13.02
2023-02-24T15:32:15.950Z,12.96
2023-02-24T15:35:24.980Z,12.75
2023-02-24T15:38:34.765Z,12.88
2023-02-24T15:41:42.315Z,12.84
2023-02-24T15:45:02.234Z,12.96
2023-02-24T15:48:23.445Z,12.98
2023-02-24T15:51:39.980Z,13.00
2023-02-24T15:54:43.579Z,12.50
2023-02-24T15:57:47.464Z,12.91
2023-02-24T16:00:52.630Z,12.69
2023-02-24T16:03:55.274Z,12.72
2023-02-24T16:06:58.052Z,12.60
2023-02-24T16:10:01.720Z,12.46
2023-02-24T16:13:03.924Z,12.64
2023-02-24T16:16:08.315Z,12.36
2023-02-24T16:19:17.727Z,12.44
2023-02-24T16:22:19.838Z,12.33
2023-02-24T16:25:22.570Z,12.05
2023-02-24T16:28:25.622Z,11.88
2023-02-24T16:31:28.420Z,11.97
2023-02-24T16:34:31.189Z,11.79
2023-02-24T16:37:33.292Z,11.57
2023-02-24T16:40:38.017Z,11.19
2023-02-24T16:43:40.931Z,10.97
2023-02-24T16:46:45.210Z,10.03
2023-02-24T16:49:48.842Z,10.75
2023-02-24T16:52:51.421Z,10.58
2023-02-24T16:55:53.707Z,10.03
2023-02-24T16:58:55.721Z,10.29
2023-02-24T17:02:00.202Z,10.19
2023-02-24T17:05:02.893Z,9.78
2023-02-24T17:08:05.281Z,9.87
2023-02-24T17:11:13.466Z,9.75
2023-02-24T17:14:20.957Z,9.69
2023-02-24T17:17:23.189Z,9.87
2023-02-24T17:20:25.669Z,9.85
2023-02-24T17:23:27.859Z,9.43
2023-02-24T17:26:30.537Z,9.83
2023-02-24T17:29:33.478Z,9.66
2023-02-24T17:32:36.337Z,9.30
2023-02-24T17:35:38.978Z,9.62
2023-02-24T17:38:41.196Z,9.67
2023-02-24T17:41:43.585Z,9.39
2023-02-24T17:44:46.260Z,9.23
2023-02-24T17:47:48.817Z,9.19
2023-02-24T17:50:52.819Z,9.52
2023-02-24T17:53:55.022Z,9.28
2023-02-24T17:56:57.240Z,9.38
2023-02-24T17:59:59.759Z,9.16
2023-02-24T18:03:03.538Z,9.41
2023-02-24T18:06:12.347Z,9.39
2023-02-24T18:09:15.459Z,9.37
2023-02-24T18:12:21.065Z,8.93
2023-02-24T18:15:23.510Z,9.41
2023-02-24T18:18:28.202Z,8.61
2023-02-24T18:21:31.306Z,9.50
2023-02-24T18:24:34.627Z,9.51
2023-02-24T18:27:37.270Z,9.23
2023-02-24T18:30:40.396Z,9.54
2023-02-24T18:33:43.839Z,9.34
2023-02-24T18:36:47.097Z,9.59
2023-02-24T18:39:49.573Z,9.56
2023-02-24T18:42:53.900Z,9.60
2023-02-24T18:46:01.774Z,9.30
2023-02-24T18:49:14.345Z,9.52
2023-02-24T18:52:17.006Z,9.50
2023-02-24T18:55:20.400Z,9.31
2023-02-24T18:58:25.386Z,9.21
2023-02-24T19:01:40.184Z,9.31
2023-02-24T19:04:43.305Z,9.42
2023-02-24T19:07:47.040Z,9.33
2023-02-24T19:10:51.546Z,9.25
2023-02-24T19:13:56.213Z,9.13
2023-02-24T19:17:02.170Z,9.11
2023-02-24T19:20:07.448Z,9.02
2023-02-24T19:23:11.343Z,8.98
2023-02-24T19:26:28.159Z,8.95
2023-02-24T19:29:33.521Z,8.65
2023-02-24T19:32:36.437Z,8.73
2023-02-24T19:35:43.840Z,8.94
2023-02-24T19:38:48.776Z,9.28
2023-02-24T19:41:51.492Z,9.35
2023-02-24T19:44:54.388Z,9.62
2023-02-24T19:48:02.344Z,9.80
2023-02-24T19:51:22.591Z,9.85
2023-02-24T19:54:26.384Z,9.81
2023-02-24T19:57:31.778Z,9.87
2023-02-24T20:00:34.998Z,9.78
2023-02-24T20:03:39.683Z,9.88
2023-02-24T20:06:45.036Z,9.56
2023-02-24T20:09:49.664Z,9.19
2023-02-24T20:12:53.189Z,9.86
2023-02-24T20:16:13.347Z,9.77
2023-02-24T20:19:16.786Z,9.79
2023-02-24T20:22:21.285Z,9.84
2023-02-24T20:25:29.579Z,9.79
2023-02-24T20:28:32.760Z,9.70
2023-02-24T20:31:35.846Z,9.43
2023-02-24T20:34:39.875Z,8.79
2023-02-24T20:37:43.174Z,9.41
2023-02-24T20:40:46.258Z,9.29
2023-02-24T20:43:49.611Z,9.53
2023-02-24T20:46:52.845Z,9.61
2023-02-24T20:49:55.891Z,9.37
2023-02-24T20:52:59.885Z,9.48
2023-02-24T20:56:04.662Z,9.34
2023-02-24T20:59:16.876Z,9.63
2023-02-24T21:02:19.601Z,9.56
2023-02-24T21:05:26.470Z,9.53
2023-02-24T21:08:29.384Z,9.20
2023-02-24T21:11:32.670Z,9.52
2023-02-24T21:14:35.127Z,9.57
2023-02-24T21:17:37.827Z,9.19
2023-02-24T21:20:39.836Z,9.35
2023-02-24T21:23:43.822Z,9.21
2023-02-24T21:26:47.761Z,8.78
2023-02-24T21:29:50.366Z,8.99
2023-02-24T21:32:52.742Z,8.77
2023-02-24T21:36:03.602Z,8.73
2023-02-24T21:39:07.403Z,8.82
2023-02-24T21:42:12.599Z,8.70
2023-02-24T21:45:14.787Z,8.71
2023-02-24T21:48:16.814Z,8.74
2023-02-24T21:51:19.360Z,8.62
2023-02-24T21:54:22.231Z,8.41
2023-02-24T21:57:25.162Z,8.49
2023-02-24T22:00:29.080Z,8.57
2023-02-24T22:03:31.238Z,8.43
2023-02-24T22:06:35.949Z,8.55
2023-02-24T22:09:38.484Z,8.13
2023-02-24T22:12:40.848Z,7.91
2023-02-24T22:15:42.854Z,8.09
2023-02-24T22:18:45.954Z,8.48
2023-02-24T22:21:48.214Z,7.96
2023-02-24T22:24:51.775Z,8.44
2023-02-24T22:27:53.915Z,8.22
2023-02-24T22:30:57.694Z,8.24
2023-02-24T22:34:00.919Z,8.49
2023-02-24T22:37:03.081Z,8.33
2023-02-24T22:40:05.543Z,8.26
2023-02-24T22:43:07.686Z,8.16
2023-02-24T22:46:14.852Z,8.46
2023-02-24T22:49:18.956Z,8.34
2023-02-24T22:52:20.973Z,8.49
2023-02-24T22:55:24.498Z,8.40
2023-02-24T22:58:27.005Z,8.49
2023-02-24T23:01:32.261Z,8.39
2023-02-24T23:04:35.352Z,8.52
2023-02-24T23:07:37.588Z,8.28
2023-02-24T23:10:39.837Z,8.55
2023-02-24T23:13:44.843Z,8.53
2023-02-24T23:16:53.858Z,8.45
2023-02-24T23:19:55.903Z,8.35
2023-02-24T23:22:57.868Z,8.20
2023-02-24T23:25:59.909Z,8.23
2023-02-24T23:29:03.400Z,8.25
2023-02-24T23:32:05.693Z,7.77
2023-02-24T23:35:08.717Z,7.80
2023-02-24T23:38:11.372Z,7.86
2023-02-24T23:41:14.073Z,7.71
2023-02-24T23:44:16.102Z,7.80
2023-02-24T23:47:18.184Z,7.55
2023-02-24T23:50:20.271Z,7.57
2023-02-24T23:53:22.289Z,7.76
2023-02-24T23:56:26.844Z,7.24
2023-02-24T23:59:28.897Z,7.67
